Time;durP1;ratioP1;P1;durP2;ratioP2;P2;SDS_P1;SDS_P2;PMS_P1;PMS_P2;Temp;Humidity;BMP_temperature;BMP_pressure;BME280_temperature;BME280_humidity;BME280_pressure;Samples;Min_cycle;Max_cycle;Signal;HPM_P1;HPM_P2
2022/06/15 00:02:08;;;;;;;5.38;2.80;;;14.80;78.40;;;;;;5035904;28;20169;-87
2022/06/15 00:04:34;;;;;;;6.85;2.83;;;14.70;78.90;;;;;;5037188;28;20666;-87
2022/06/15 00:07:00;;;;;;;3.63;2.40;;;14.70;79.70;;;;;;5035899;28;20226;-87
2022/06/15 00:09:26;;;;;;;6.85;2.80;;;14.70;79.60;;;;;;5034456;28;20216;-87
2022/06/15 00:11:51;;;;;;;7.85;2.78;;;14.70;79.20;;;;;;5035705;28;20193;-87
2022/06/15 00:14:22;;;;;;;4.20;2.95;;;14.70;79.30;;;;;;5034414;28;20219;-86
2022/06/15 00:16:48;;;;;;;3.70;2.45;;;14.70;79.60;;;;;;5035698;28;20165;-87
2022/06/15 00:19:14;;;;;;;5.47;3.10;;;14.60;79.90;;;;;;5035703;28;20208;-88
2022/06/15 00:21:40;;;;;;;3.58;2.65;;;14.70;79.60;;;;;;5034379;28;20184;-86
2022/06/15 00:24:06;;;;;;;5.05;2.60;;;14.70;79.40;;;;;;5035634;28;20183;-84
2022/06/15 00:26:32;;;;;;;9.50;3.45;;;14.70;79.00;;;;;;5048115;28;20173;-85
2022/06/15 00:28:58;;;;;;;5.80;3.40;;;14.60;79.10;;;;;;5052686;28;20207;-85
2022/06/15 00:31:23;;;;;;;6.15;3.05;;;14.50;79.50;;;;;;5053794;28;20215;-85
2022/06/15 00:33:49;;;;;;;5.05;3.22;;;14.40;80.10;;;;;;5052539;28;20180;-84
2022/06/15 00:36:18;;;;;;;7.20;3.33;;;14.40;80.00;;;;;;5042292;28;20184;-86
2022/06/15 00:38:47;;;;;;;4.75;3.05;;;14.50;79.80;;;;;;5039427;28;20184;-86
2022/06/15 00:41:18;;;;;;;8.43;3.10;;;14.40;79.50;;;;;;5037815;28;20204;-85
2022/06/15 00:43:47;;;;;;;5.97;3.30;;;14.50;79.30;;;;;;5037782;28;20177;-85
2022/06/15 00:46:15;;;;;;;6.10;3.28;;;14.40;79.50;;;;;;5036890;28;20181;-86
2022/06/15 00:48:43;;;;;;;4.32;2.97;;;14.30;79.10;;;;;;5037133;28;20208;-86
2022/06/15 00:51:08;;;;;;;8.75;3.20;;;14.20;79.70;;;;;;5038785;28;20262;-85
2022/06/15 00:53:34;;;;;;;8.07;3.20;;;14.20;80.40;;;;;;5037940;28;20184;-86
2022/06/15 00:56:00;;;;;;;7.03;3.42;;;14.00;80.70;;;;;;5037941;28;20654;-85
2022/06/15 00:58:26;;;;;;;7.95;3.20;;;14.00;80.40;;;;;;5038211;28;20181;-86
2022/06/15 01:00:54;;;;;;;4.32;2.80;;;14.10;80.10;;;;;;5037109;28;20212;-86
2022/06/15 01:03:19;;;;;;;4.47;2.87;;;14.00;79.80;;;;;;5038466;28;20186;-86
2022/06/15 01:05:58;;;;;;;7.55;3.90;;;14.00;79.50;;;;;;5038618;28;20172;-88
2022/06/15 01:08:36;;;;;;;7.43;3.78;;;13.90;79.60;;;;;;5038084;28;20192;-87
2022/06/15 01:11:09;;;;;;;10.27;3.50;;;13.80;80.60;;;;;;5038941;28;20219;-87
2022/06/15 01:14:00;;;;;;;8.43;3.30;;;13.80;80.80;;;;;;5037448;28;20172;-86
2022/06/15 01:16:53;;;;;;;4.53;3.30;;;13.60;81.50;;;;;;5037326;28;20723;-87
2022/06/15 01:19:37;;;;;;;4.07;2.80;;;13.50;81.30;;;;;;5007750;28;20217;-87
2022/06/15 01:22:14;;;;;;;2.83;2.53;;;13.50;81.20;;;;;;5037406;28;20189;-86
2022/06/15 01:25:07;;;;;;;7.43;3.27;;;13.50;80.80;;;;;;5036838;28;20548;-87
2022/06/15 01:28:11;;;;;;;5.07;2.83;;;13.50;80.60;;;;;;5036592;28;20275;-87
2022/06/15 01:30:54;;;;;;;6.77;3.57;;;13.50;80.50;;;;;;5036104;28;20227;-87
2022/06/15 01:33:20;;;;;;;5.57;3.33;;;13.50;80.80;;;;;;5037734;28;20226;-86
2022/06/15 01:35:59;;;;;;;6.30;3.27;;;13.40;81.70;;;;;;5037072;28;20184;-87
2022/06/15 01:38:41;;;;;;;5.43;3.13;;;13.30;82.20;;;;;;5036189;28;20177;-86
2022/06/15 01:41:39;;;;;;;7.37;3.40;;;13.30;82.30;;;;;;5036744;28;20232;-86
2022/06/15 01:44:29;;;;;;;8.00;3.83;;;13.30;82.30;;;;;;5033413;28;20204;-86
2022/06/15 01:46:56;;;;;;;10.77;3.93;;;13.20;82.80;;;;;;5039829;28;20635;-86
2022/06/15 01:49:29;;;;;;;7.50;4.67;;;13.00;83.50;;;;;;5036207;28;20686;-87
2022/06/15 01:51:57;;;;;;;8.60;4.83;;;12.90;83.40;;;;;;5036219;28;20216;-86
2022/06/15 01:54:25;;;;;;;11.90;5.73;;;12.90;84.00;;;;;;5034521;28;20222;-87
2022/06/15 01:56:53;;;;;;;9.67;4.63;;;12.80;84.80;;;;;;5035328;28;20183;-87
2022/06/15 01:59:18;;;;;;;6.70;4.00;;;12.80;85.20;;;;;;5037819;28;20189;-87
2022/06/15 02:01:50;;;;;;;14.70;4.60;;;12.90;85.10;;;;;;5037433;28;20183;-87
2022/06/15 02:04:24;;;;;;;8.07;4.43;;;12.90;84.70;;;;;;5035855;28;20183;-86
2022/06/15 02:07:35;;;;;;;9.53;4.40;;;13.00;84.60;;;;;;5037770;28;20261;-86
2022/06/15 02:10:05;;;;;;;7.30;4.40;;;13.10;84.70;;;;;;4998622;28;20296;-87
2022/06/15 02:12:49;;;;;;;11.13;5.47;;;13.10;84.40;;;;;;5034409;28;20203;-86
2022/06/15 02:15:16;;;;;;;7.93;4.27;;;13.20;84.30;;;;;;5034333;28;20231;-87
2022/06/15 02:17:45;;;;;;;8.93;4.27;;;13.20;84.40;;;;;;5034647;28;20176;-86
2022/06/15 02:20:17;;;;;;;8.03;4.40;;;13.20;84.50;;;;;;5034874;28;20701;-87
2022/06/15 02:22:44;;;;;;;7.63;4.50;;;13.30;84.10;;;;;;5035315;28;20525;-87
2022/06/15 02:25:15;;;;;;;11.37;4.20;;;13.30;84.30;;;;;;5036781;28;20203;-86
2022/06/15 02:27:42;;;;;;;9.03;4.07;;;13.40;84.00;;;;;;5035701;28;20231;-86
2022/06/15 02:30:13;;;;;;;8.67;4.90;;;13.50;83.60;;;;;;5037514;28;20643;-86
2022/06/15 02:32:42;;;;;;;8.33;4.27;;;13.40;83.70;;;;;;5034596;28;20172;-87
2022/06/15 02:35:08;;;;;;;7.10;4.40;;;13.50;84.40;;;;;;5035022;28;20180;-87
2022/06/15 02:37:34;;;;;;;6.50;4.40;;;13.50;84.40;;;;;;5035519;28;20177;-87
2022/06/15 02:40:00;;;;;;;10.53;4.37;;;13.40;84.20;;;;;;5034917;28;20247;-86
2022/06/15 02:42:38;;;;;;;10.17;4.83;;;13.40;84.10;;;;;;5035898;28;20666;-87
2022/06/15 02:45:18;;;;;;;5.50;4.00;;;13.50;84.40;;;;;;5035042;28;20691;-86
2022/06/15 02:47:44;;;;;;;8.53;5.00;;;13.50;84.40;;;;;;5035501;28;20262;-86
2022/06/15 02:50:13;;;;;;;6.77;4.17;;;13.50;84.30;;;;;;5035642;28;20188;-86
2022/06/15 02:52:54;;;;;;;7.43;4.47;;;13.50;84.30;;;;;;5036221;28;20172;-86
2022/06/15 02:55:21;;;;;;;10.57;4.30;;;13.50;84.10;;;;;;5036159;28;20206;-86
2022/06/15 02:58:02;;;;;;;5.87;3.60;;;13.50;83.90;;;;;;5036079;28;20196;-86
2022/06/15 03:00:28;;;;;;;7.43;4.07;;;13.40;84.00;;;;;;5034689;28;20283;-86
2022/06/15 03:02:54;;;;;;;6.63;3.80;;;13.40;83.90;;;;;;5036077;28;20204;-86
2022/06/15 03:05:19;;;;;;;4.33;3.70;;;13.40;84.00;;;;;;5035672;28;20253;-86
2022/06/15 03:07:45;;;;;;;5.87;3.60;;;13.30;84.20;;;;;;5034702;28;20215;-86
2022/06/15 03:10:11;;;;;;;7.93;3.80;;;13.30;84.40;;;;;;5036153;28;20185;-87
2022/06/15 03:12:37;;;;;;;5.47;3.23;;;13.30;84.30;;;;;;5035878;28;20523;-86
2022/06/15 03:15:03;;;;;;;3.73;3.13;;;13.50;84.60;;;;;;5035244;28;20271;-86
2022/06/15 03:17:29;;;;;;;12.63;4.70;;;13.60;84.00;;;;;;5036450;28;20184;-86
2022/06/15 03:19:55;;;;;;;10.63;4.20;;;13.60;83.50;;;;;;5035777;28;20592;-86
2022/06/15 03:22:21;;;;;;;6.37;3.60;;;13.50;83.70;;;;;;5039285;28;20248;-86
2022/06/15 03:24:46;;;;;;;5.87;3.70;;;13.60;83.40;;;;;;5040373;28;20173;-86
2022/06/15 03:27:12;;;;;;;3.60;3.30;;;13.50;83.80;;;;;;5039238;28;20263;-86
2022/06/15 03:29:38;;;;;;;6.17;2.90;;;13.40;84.10;;;;;;5038779;28;20752;-86
2022/06/15 03:32:04;;;;;;;9.10;3.97;;;13.20;84.20;;;;;;5038824;28;20202;-86
2022/06/15 03:34:30;;;;;;;8.93;3.80;;;13.10;84.70;;;;;;5040097;28;20656;-86
2022/06/15 03:36:55;;;;;;;8.80;3.53;;;13.00;84.90;;;;;;5038922;28;20177;-86
2022/06/15 03:39:21;;;;;;;11.97;4.47;;;13.00;85.20;;;;;;5041565;28;20241;-86
2022/06/15 03:41:46;;;;;;;7.03;4.10;;;13.00;85.60;;;;;;5039803;28;20278;-86
2022/06/15 03:44:12;;;;;;;7.37;3.90;;;13.00;85.90;;;;;;5039313;28;20184;-86
2022/06/15 03:46:38;;;;;;;9.37;4.77;;;12.90;85.90;;;;;;5039876;28;20188;-86
2022/06/15 03:49:04;;;;;;;18.60;5.93;;;12.80;86.00;;;;;;5041211;28;20204;-86
2022/06/15 03:51:29;;;;;;;8.30;5.53;;;12.80;86.30;;;;;;5041293;28;20543;-86
2022/06/15 03:53:55;;;;;;;12.73;5.77;;;12.80;86.70;;;;;;5040684;28;20183;-86
2022/06/15 03:56:21;;;;;;;9.43;7.27;;;12.80;86.80;;;;;;5039868;28;20172;-86
2022/06/15 03:58:46;;;;;;;11.00;5.27;;;12.80;86.80;;;;;;5040943;28;20169;-86
2022/06/15 04:01:13;;;;;;;9.10;5.20;;;12.80;87.10;;;;;;5038029;28;20620;-86
2022/06/15 04:03:38;;;;;;;7.27;5.70;;;12.70;87.60;;;;;;5038336;28;20176;-87
2022/06/15 04:06:05;;;;;;;11.17;6.63;;;12.60;87.90;;;;;;5038244;28;20185;-86
2022/06/15 04:08:42;;;;;;;11.23;5.90;;;12.70;88.00;;;;;;5039152;28;20204;-86
2022/06/15 04:11:58;;;;;;;9.00;5.53;;;12.80;88.00;;;;;;5039502;28;20192;-86
2022/06/15 04:14:04;;;;;;;14.83;5.67;;;13.00;87.90;;;;;;5041138;28;20548;-86
2022/06/15 04:16:30;;;;;;;9.23;5.43;;;13.10;87.60;;;;;;5041738;28;20173;-86
2022/06/15 04:18:56;;;;;;;10.87;5.83;;;13.20;87.40;;;;;;5041363;28;20173;-86
2022/06/15 04:21:22;;;;;;;7.07;4.90;;;13.30;87.10;;;;;;5039748;28;20242;-86
2022/06/15 04:23:48;;;;;;;15.80;5.70;;;13.40;86.70;;;;;;5038424;28;20181;-86
2022/06/15 04:26:13;;;;;;;7.20;4.53;;;13.40;86.40;;;;;;5040274;28;20184;-87
2022/06/15 04:28:40;;;;;;;10.77;5.60;;;13.50;86.10;;;;;;5039417;28;20205;-86
2022/06/15 04:31:06;;;;;;;9.87;5.67;;;13.50;85.90;;;;;;5039419;28;20697;-87
2022/06/15 04:33:32;;;;;;;17.43;5.77;;;13.40;85.80;;;;;;5038971;28;20177;-87
2022/06/15 04:35:58;;;;;;;11.50;5.30;;;13.40;85.60;;;;;;5039583;28;20208;-86
2022/06/15 04:38:24;;;;;;;10.07;4.70;;;13.40;85.50;;;;;;5039913;28;20236;-87
2022/06/15 04:40:50;;;;;;;7.73;4.20;;;13.40;85.50;;;;;;5039196;28;20208;-86
2022/06/15 04:43:16;;;;;;;12.17;5.10;;;13.50;85.40;;;;;;5038362;28;20184;-86
2022/06/15 04:45:41;;;;;;;9.30;5.03;;;13.40;85.00;;;;;;5040160;28;20177;-86
2022/06/15 04:48:09;;;;;;;14.70;5.63;;;13.50;84.80;;;;;;5040169;28;20671;-86
2022/06/15 04:50:35;;;;;;;14.50;6.00;;;13.50;84.70;;;;;;5038508;28;20204;-86
2022/06/15 04:53:02;;;;;;;8.43;5.40;;;13.40;84.70;;;;;;5038113;28;20199;-86
2022/06/15 04:55:28;;;;;;;8.53;6.20;;;13.40;84.70;;;;;;5039086;28;20200;-86
2022/06/15 04:57:54;;;;;;;14.23;6.67;;;13.60;85.50;;;;;;5037737;28;20279;-86
2022/06/15 05:00:22;;;;;;;14.33;6.97;;;13.70;86.00;;;;;;5039144;28;20196;-86
2022/06/15 05:02:48;;;;;;;12.53;7.20;;;13.70;86.10;;;;;;5037665;28;20203;-86
2022/06/15 05:05:14;;;;;;;12.53;7.67;;;13.70;86.60;;;;;;5037619;28;20678;-86
2022/06/15 05:07:40;;;;;;;8.80;6.93;;;13.70;86.90;;;;;;5037255;28;20191;-86
2022/06/15 05:10:08;;;;;;;14.43;7.03;;;13.80;87.00;;;;;;5038514;28;20193;-86
2022/06/15 05:12:34;;;;;;;11.27;7.30;;;13.90;87.30;;;;;;5038288;28;20180;-86
2022/06/15 05:15:00;;;;;;;12.33;7.00;;;14.00;87.50;;;;;;5037821;28;20304;-86
2022/06/15 05:17:25;;;;;;;14.63;7.03;;;14.00;87.20;;;;;;5038819;28;20169;-86
2022/06/15 05:19:51;;;;;;;11.50;7.27;;;14.20;87.40;;;;;;5038230;28;20663;-86
2022/06/15 05:22:17;;;;;;;14.53;8.17;;;14.30;87.50;;;;;;5036208;28;20192;-86
2022/06/15 05:24:42;;;;;;;14.27;7.00;;;14.30;87.00;;;;;;5037061;28;20664;-86
2022/06/15 05:27:08;;;;;;;14.20;6.97;;;14.30;87.20;;;;;;5035363;28;20177;-89
2022/06/15 05:29:35;;;;;;;16.63;7.40;;;14.30;87.00;;;;;;5037207;28;20647;-86
2022/06/15 05:32:02;;;;;;;15.13;6.53;;;14.40;87.20;;;;;;5037644;28;20574;-86
2022/06/15 05:34:28;;;;;;;11.47;5.47;;;14.50;87.00;;;;;;5036774;28;20225;-87
2022/06/15 05:36:53;;;;;;;18.93;7.00;;;14.60;86.80;;;;;;5037239;28;20793;-86
2022/06/15 05:39:19;;;;;;;13.73;5.63;;;14.70;86.70;;;;;;5037036;28;20200;-87
2022/06/15 05:41:44;;;;;;;13.33;4.80;;;14.90;86.60;;;;;;5036827;28;20180;-86
2022/06/15 05:46:42;;;;;;;9.27;3.60;;;15.20;83.80;;;;;;5038244;28;20168;-86
2022/06/15 05:49:09;;;;;;;8.77;3.42;;;15.30;83.00;;;;;;5036220;28;20201;-86
2022/06/15 05:51:34;;;;;;;5.60;3.92;;;15.40;82.30;;;;;;5036494;28;20184;-86
2022/06/15 05:54:00;;;;;;;11.30;4.80;;;15.40;81.60;;;;;;5036947;28;20177;-86
2022/06/15 05:56:25;;;;;;;11.95;5.32;;;15.40;81.20;;;;;;5038736;28;20252;-86
2022/06/15 05:58:51;;;;;;;8.88;4.38;;;15.50;81.30;;;;;;5037323;28;20181;-87
2022/06/15 06:01:29;;;;;;;11.05;5.28;;;15.60;81.00;;;;;;5037534;28;20177;-87
2022/06/15 06:03:55;;;;;;;8.02;4.85;;;15.50;80.60;;;;;;5036636;28;20165;-86
2022/06/15 06:06:21;;;;;;;11.88;5.70;;;15.60;80.70;;;;;;5036721;28;20586;-85
2022/06/15 06:08:47;;;;;;;12.48;6.00;;;15.60;81.20;;;;;;5037045;28;20200;-87
2022/06/15 06:11:14;;;;;;;16.33;7.57;;;15.70;80.60;;;;;;5036325;28;20585;-87
2022/06/15 06:13:40;;;;;;;13.48;7.72;;;15.70;79.90;;;;;;5038672;28;20168;-87
2022/06/15 06:16:06;;;;;;;12.48;7.57;;;15.70;79.70;;;;;;5039946;28;20597;-87
2022/06/15 06:18:31;;;;;;;15.90;7.72;;;15.70;79.80;;;;;;5037806;28;20234;-87
2022/06/15 06:20:57;;;;;;;17.30;7.55;;;15.70;80.40;;;;;;5036568;28;20216;-87
2022/06/15 06:23:23;;;;;;;9.05;7.10;;;15.80;81.00;;;;;;5038878;28;20230;-86
2022/06/15 06:25:51;;;;;;;9.60;7.00;;;15.90;81.80;;;;;;5036466;28;20677;-87
2022/06/15 06:28:31;;;;;;;11.07;6.97;;;16.00;81.40;;;;;;5032856;28;20245;-87
2022/06/15 06:30:59;;;;;;;13.10;7.45;;;16.10;80.90;;;;;;5033700;28;20283;-87
2022/06/15 06:33:29;;;;;;;10.93;7.03;;;16.10;80.30;;;;;;5034054;28;20177;-87
2022/06/15 06:35:57;;;;;;;14.07;6.68;;;16.30;80.90;;;;;;5033980;28;20169;-87
2022/06/15 06:38:24;;;;;;;11.35;7.32;;;16.40;80.50;;;;;;5032738;28;20184;-88
2022/06/15 06:40:54;;;;;;;11.77;6.65;;;16.30;79.00;;;;;;5032653;28;20200;-88
2022/06/15 06:43:20;;;;;;;15.40;7.47;;;16.30;79.70;;;;;;5033829;28;20643;-87
2022/06/15 06:45:46;;;;;;;10.52;6.70;;;16.40;79.30;;;;;;5032465;28;20199;-87
2022/06/15 06:48:12;;;;;;;11.98;6.70;;;16.40;78.50;;;;;;5034434;28;20212;-88
2022/06/15 06:50:40;;;;;;;12.00;6.85;;;16.40;78.90;;;;;;5032134;28;20192;-88
2022/06/15 06:53:07;;;;;;;14.30;6.40;;;16.50;79.00;;;;;;5032294;28;20278;-87
2022/06/15 06:55:33;;;;;;;12.15;5.80;;;16.60;77.50;;;;;;5032980;28;20172;-87
2022/06/15 06:58:00;;;;;;;10.50;5.05;;;16.70;75.50;;;;;;5036698;28;20173;-87
2022/06/15 07:00:28;;;;;;;12.07;5.45;;;16.80;77.10;;;;;;5036646;28;20287;-87
2022/06/15 07:02:54;;;;;;;10.05;5.53;;;16.90;75.40;;;;;;5036573;28;20184;-87
2022/06/15 07:05:19;;;;;;;11.18;5.32;;;17.10;75.90;;;;;;5037728;28;20173;-88
2022/06/15 07:07:45;;;;;;;9.25;5.03;;;17.20;74.20;;;;;;5036009;28;20173;-87
2022/06/15 07:10:12;;;;;;;8.98;4.40;;;17.20;74.20;;;;;;5037089;28;20242;-88
2022/06/15 07:12:38;;;;;;;14.77;5.15;;;17.20;72.20;;;;;;5037256;28;20260;-88
2022/06/15 07:15:05;;;;;;;14.02;4.88;;;17.20;72.10;;;;;;5035929;28;20176;-88
2022/06/15 07:17:31;;;;;;;9.30;4.18;;;17.30;72.80;;;;;;5036959;28;20171;-87
2022/06/15 07:19:57;;;;;;;9.63;4.68;;;17.30;72.50;;;;;;5036820;28;20200;-88
2022/06/15 07:22:22;;;;;;;8.70;4.18;;;17.50;72.40;;;;;;5035954;28;20187;-87
2022/06/15 07:24:49;;;;;;;7.43;4.50;;;17.60;71.50;;;;;;5036100;28;20173;-87
2022/06/15 07:27:15;;;;;;;11.43;4.50;;;17.50;69.40;;;;;;5036011;28;20231;-87
2022/06/15 07:29:43;;;;;;;10.75;4.53;;;17.60;70.10;;;;;;5035890;28;20577;-87
2022/06/15 07:32:08;;;;;;;6.40;3.95;;;17.70;71.20;;;;;;5036222;28;20197;-88
2022/06/15 07:34:34;;;;;;;9.45;3.83;;;17.90;70.90;;;;;;5035775;28;20215;-88
2022/06/15 07:37:00;;;;;;;7.15;3.85;;;17.90;70.70;;;;;;5035917;28;20223;-88
2022/06/15 07:39:30;;;;;;;8.82;4.28;;;18.00;70.70;;;;;;5035940;28;20566;-88
2022/06/15 07:41:56;;;;;;;9.00;4.10;;;18.00;69.40;;;;;;5037162;28;20183;-87
2022/06/15 07:44:24;;;;;;;11.20;4.03;;;17.90;69.70;;;;;;5036134;28;20177;-87
2022/06/15 07:49:54;;;;;;;12.35;4.35;;;18.20;70.60;;;;;;5035826;28;20638;-88
2022/06/15 07:52:41;;;;;;;6.72;3.88;;;18.40;69.70;;;;;;5036926;28;20163;-88
2022/06/15 07:55:10;;;;;;;8.48;4.15;;;18.50;68.30;;;;;;5036284;28;20165;-88
2022/06/15 07:57:36;;;;;;;6.22;3.63;;;17.90;66.40;;;;;;5035271;28;20169;-88
2022/06/15 08:00:06;;;;;;;10.88;3.92;;;18.00;66.00;;;;;;5035139;28;20254;-88
2022/06/15 08:02:33;;;;;;;7.90;3.30;;;18.30;68.70;;;;;;5035340;28;20187;-88
2022/06/15 08:04:58;;;;;;;11.85;4.20;;;18.40;67.70;;;;;;5035195;28;20169;-88
2022/06/15 08:07:24;;;;;;;13.88;3.40;;;18.30;65.80;;;;;;5035715;28;20199;-87
2022/06/15 08:09:50;;;;;;;8.63;3.80;;;18.30;66.70;;;;;;5034608;28;20318;-88
2022/06/15 08:12:16;;;;;;;14.05;4.10;;;18.30;66.40;;;;;;5036570;28;20248;-88
2022/06/15 08:14:52;;;;;;;8.73;3.80;;;18.30;66.30;;;;;;5034973;28;20173;-88
2022/06/15 08:17:24;;;;;;;5.32;3.08;;;18.50;65.00;;;;;;5034660;28;20263;-88
2022/06/15 08:19:53;;;;;;;9.63;3.83;;;18.70;65.60;;;;;;5034410;28;20208;-88
2022/06/15 08:22:20;;;;;;;11.02;3.85;;;18.80;65.40;;;;;;5034526;28;20337;-88
2022/06/15 08:24:47;;;;;;;5.57;3.22;;;18.60;65.30;;;;;;5034935;28;20202;-89
2022/06/15 08:27:17;;;;;;;5.93;3.15;;;18.90;66.30;;;;;;5034488;28;20180;-88
2022/06/15 08:29:46;;;;;;;6.18;3.20;;;19.30;64.60;;;;;;5034261;28;20204;-88
2022/06/15 08:32:12;;;;;;;9.07;3.42;;;19.00;63.50;;;;;;5034498;28;20188;-87
2022/06/15 08:34:39;;;;;;;6.13;2.78;;;19.10;64.80;;;;;;5034510;28;20173;-88
2022/06/15 08:37:11;;;;;;;5.45;2.85;;;19.20;64.40;;;;;;5034567;28;20180;-88
2022/06/15 08:39:37;;;;;;;4.53;2.20;;;19.60;62.70;;;;;;5034598;28;20199;-88
2022/06/15 08:42:41;;;;;;;5.88;2.22;;;19.80;61.30;;;;;;5035544;28;20165;-87
2022/06/15 08:45:40;;;;;;;7.97;3.28;;;20.00;62.50;;;;;;5034032;28;20198;-88
2022/06/15 08:48:30;;;;;;;8.25;2.72;;;20.40;61.50;;;;;;5027587;28;20205;-88
2022/06/15 08:51:21;;;;;;;5.72;2.60;;;20.30;62.00;;;;;;5035533;28;20223;-88
2022/06/15 08:54:18;;;;;;;7.10;2.53;;;20.20;61.10;;;;;;5030627;28;20244;-89
2022/06/15 08:56:52;;;;;;;6.32;2.55;;;20.20;60.90;;;;;;5035363;28;20531;-88
2022/06/15 08:59:39;;;;;;;5.00;2.28;;;20.30;60.10;;;;;;5034894;28;20199;-88
2022/06/15 09:02:08;;;;;;;4.30;2.60;;;20.30;58.80;;;;;;5034993;28;20179;-88
2022/06/15 09:04:46;;;;;;;6.47;3.10;;;20.20;56.30;;;;;;5034971;28;20188;-88
2022/06/15 09:07:23;;;;;;;6.72;2.70;;;20.10;58.20;;;;;;5033829;28;20681;-88
2022/06/15 09:10:14;;;;;;;7.75;3.00;;;20.10;59.00;;;;;;5033467;28;20705;-88
2022/06/15 09:13:20;;;;;;;7.10;2.83;;;20.20;60.10;;;;;;5033788;28;20165;-88
2022/06/15 09:16:00;;;;;;;6.30;2.72;;;20.30;61.30;;;;;;5034598;28;20172;-88
2022/06/15 09:18:32;;;;;;;10.05;3.00;;;20.70;59.30;;;;;;5032508;28;20169;-89
2022/06/15 09:21:13;;;;;;;7.55;2.78;;;21.10;55.50;;;;;;5034964;28;20271;-89
2022/06/15 09:23:48;;;;;;;4.32;2.08;;;20.70;54.40;;;;;;5034558;28;20271;-88
2022/06/15 09:26:28;;;;;;;5.07;2.30;;;20.80;54.80;;;;;;5033340;28;20204;-89
2022/06/15 09:29:17;;;;;;;5.47;2.47;;;21.20;55.00;;;;;;5034385;28;20185;-89
2022/06/15 09:31:55;;;;;;;3.25;2.10;;;20.80;52.10;;;;;;5033280;28;20161;-88
2022/06/15 09:34:53;;;;;;;5.53;2.63;;;21.10;51.30;;;;;;5033082;28;20195;-89
2022/06/15 09:37:22;;;;;;;6.40;2.42;;;21.20;53.10;;;;;;5032642;28;20268;-89
2022/06/15 09:39:47;;;;;;;7.90;2.60;;;21.20;52.50;;;;;;5032974;28;20671;-88
2022/06/15 09:42:47;;;;;;;3.33;2.10;;;21.60;49.30;;;;;;5034522;28;20180;-88
2022/06/15 09:46:07;;;;;;;6.07;2.13;;;21.30;51.00;;;;;;5010985;28;20193;-89
2022/06/15 09:48:57;;;;;;;4.10;1.90;;;21.30;51.40;;;;;;4973522;28;20261;-89
2022/06/15 09:51:56;;;;;;;6.10;2.03;;;20.50;50.90;;;;;;5030587;28;20216;-89
2022/06/15 09:54:27;;;;;;;6.22;3.20;;;20.70;52.40;;;;;;5032744;28;20696;-89
2022/06/15 09:56:53;;;;;;;9.35;4.10;;;20.70;54.20;;;;;;5032607;28;20169;-89
2022/06/15 09:59:20;;;;;;;4.03;1.90;;;20.80;56.00;;;;;;5033764;28;20547;-88
2022/06/15 10:01:47;;;;;;;4.25;1.70;;;21.10;49.70;;;;;;5032566;28;20267;-89
2022/06/15 10:04:21;;;;;;;4.70;2.15;;;21.10;43.70;;;;;;5032696;28;20172;-89
2022/06/15 10:06:54;;;;;;;3.90;1.60;;;21.20;44.90;;;;;;5034120;28;20165;-89
2022/06/15 10:09:26;;;;;;;3.85;1.38;;;21.50;47.20;;;;;;5035638;28;20204;-91
2022/06/15 10:12:55;;;;;;;6.28;2.67;;;21.60;45.10;;;;;;5034064;28;20152;-88
2022/06/15 10:14:50;;;;;;;7.15;2.10;;;21.70;45.20;;;;;;5033578;28;20184;-89
2022/06/15 10:17:30;;;;;;;6.15;2.40;;;21.20;46.00;;;;;;5033765;28;20541;-88
2022/06/15 10:19:57;;;;;;;5.95;2.30;;;20.80;46.60;;;;;;5032125;28;20218;-88
2022/06/15 10:22:39;;;;;;;3.72;1.95;;;20.70;47.50;;;;;;5032320;28;20212;-88
2022/06/15 10:25:06;;;;;;;5.50;2.22;;;21.00;47.80;;;;;;5032276;28;20211;-88
2022/06/15 10:27:38;;;;;;;5.00;2.67;;;20.50;48.10;;;;;;5032241;28;20271;-88
2022/06/15 10:30:22;;;;;;;5.25;2.33;;;20.70;46.20;;;;;;5031885;28;20202;-88
2022/06/15 10:33:17;;;;;;;6.22;2.40;;;20.70;51.60;;;;;;5033637;28;20149;-88
2022/06/15 10:35:50;;;;;;;5.32;2.78;;;20.80;49.00;;;;;;5025317;28;20177;-88
2022/06/15 10:38:17;;;;;;;6.60;3.20;;;21.60;52.70;;;;;;5033390;28;20165;-88
2022/06/15 10:43:48;;;;;;;7.90;2.88;;;21.90;53.00;;;;;;5033449;28;20653;-88
2022/06/15 10:46:16;;;;;;;6.53;2.53;;;21.60;54.80;;;;;;5032030;28;20271;-88
2022/06/15 10:48:53;;;;;;;7.72;2.60;;;21.20;55.00;;;;;;5031977;28;20296;-90
2022/06/15 10:51:36;;;;;;;8.02;2.63;;;21.10;52.50;;;;;;5032078;28;20169;-90
2022/06/15 10:54:17;;;;;;;7.43;2.70;;;20.80;53.70;;;;;;5032113;28;20164;-89
2022/06/15 11:02:37;;;;;;;7.10;2.60;;;20.20;58.30;;;;;;5034127;28;20184;-89
2022/06/15 11:05:12;;;;;;;8.73;3.00;;;20.20;57.40;;;;;;5032081;28;20225;-88
2022/06/15 11:07:45;;;;;;;6.55;2.53;;;20.30;54.70;;;;;;5033486;28;20214;-89
2022/06/15 11:10:34;;;;;;;9.48;2.78;;;20.50;55.40;;;;;;5033841;28;20196;-89
2022/06/15 11:13:27;;;;;;;6.68;2.70;;;20.30;56.70;;;;;;5031997;28;20267;-87
2022/06/15 11:18:45;;;;;;;5.20;3.08;;;20.50;53.50;;;;;;5033484;28;20265;-89
2022/06/15 11:21:37;;;;;;;5.07;2.92;;;20.40;55.70;;;;;;5031769;28;20303;-89
2022/06/15 11:24:12;;;;;;;11.95;3.00;;;20.30;54.50;;;;;;5031949;28;20184;-88
2022/06/15 11:27:01;;;;;;;7.93;3.05;;;20.30;55.80;;;;;;5032561;28;20179;-88
2022/06/15 11:29:39;;;;;;;8.27;3.40;;;20.20;57.00;;;;;;5031370;28;20231;-89
2022/06/15 11:32:43;;;;;;;5.90;2.30;;;20.20;57.60;;;;;;5032967;28;20173;-89
2022/06/15 11:35:11;;;;;;;8.35;3.30;;;20.40;59.30;;;;;;5018440;28;20187;-88
2022/06/15 11:37:59;;;;;;;5.38;2.45;;;20.70;57.10;;;;;;5031854;28;20184;-88
2022/06/15 11:40:44;;;;;;;4.38;2.47;;;21.20;55.00;;;;;;5033189;28;20223;-88
2022/06/15 11:43:12;;;;;;;7.85;2.80;;;21.80;53.70;;;;;;5034745;28;20193;-88
2022/06/15 11:45:51;;;;;;;7.80;3.28;;;22.30;50.50;;;;;;5036669;28;20232;-88
2022/06/15 11:48:45;;;;;;;9.38;3.03;;;22.50;51.10;;;;;;5036452;28;20630;-87
2022/06/15 11:51:35;;;;;;;9.88;2.92;;;22.30;49.90;;;;;;5036295;28;20201;-89
2022/06/15 11:54:19;;;;;;;7.65;2.75;;;21.90;50.80;;;;;;5035231;28;20207;-88
2022/06/15 11:56:56;;;;;;;8.85;3.53;;;22.00;51.80;;;;;;5037846;28;20177;-89
2022/06/15 11:59:43;;;;;;;6.45;3.05;;;22.10;51.00;;;;;;5036963;28;20192;-88
2022/06/15 12:02:33;;;;;;;7.43;2.90;;;21.90;51.60;;;;;;5036214;28;20247;-89
2022/06/15 12:05:16;;;;;;;7.72;3.08;;;22.00;51.70;;;;;;5036371;28;20577;-89
2022/06/15 12:07:59;;;;;;;10.43;2.97;;;22.10;49.70;;;;;;5034830;28;20552;-89
2022/06/15 12:10:45;;;;;;;7.90;3.15;;;21.90;49.30;;;;;;5035985;28;20282;-88
2022/06/15 12:13:46;;;;;;;6.15;3.20;;;22.80;49.90;;;;;;5034688;28;20199;-88
2022/06/15 12:16:29;;;;;;;8.13;2.78;;;23.40;45.50;;;;;;5034611;28;20172;-89
2022/06/15 12:19:16;;;;;;;7.60;2.63;;;23.70;45.50;;;;;;5034471;28;20180;-89
2022/06/15 12:21:56;;;;;;;5.55;2.75;;;23.40;47.20;;;;;;5034537;28;20176;-88
2022/06/15 12:24:44;;;;;;;7.20;2.97;;;23.20;47.30;;;;;;5035760;28;20235;-88
2022/06/15 12:27:40;;;;;;;7.07;2.90;;;23.30;46.70;;;;;;5034741;28;20169;-89
2022/06/15 12:30:26;;;;;;;9.15;3.22;;;23.50;45.00;;;;;;5034287;28;20231;-89
2022/06/15 12:33:17;;;;;;;7.72;3.00;;;23.20;46.90;;;;;;5034890;28;20260;-88
2022/06/15 12:36:01;;;;;;;8.10;3.13;;;23.20;44.10;;;;;;5034600;28;20176;-88
2022/06/15 12:38:55;;;;;;;5.30;2.30;;;23.70;44.90;;;;;;5034325;28;20164;-88
2022/06/15 12:44:22;;;;;;;4.00;2.17;;;24.20;44.10;;;;;;5036058;28;20268;-88
2022/06/15 12:46:51;;;;;;;6.03;2.80;;;24.60;45.30;;;;;;5034030;28;20192;-88
2022/06/15 12:49:25;;;;;;;5.40;3.13;;;24.50;46.60;;;;;;5034908;28;20196;-88
2022/06/15 12:52:12;;;;;;;5.55;2.45;;;24.70;42.10;;;;;;5033950;28;20172;-87
2022/06/15 12:55:08;;;;;;;6.10;3.00;;;25.10;45.00;;;;;;5034432;28;20164;-88
2022/06/15 12:58:02;;;;;;;4.38;2.30;;;24.20;42.80;;;;;;5033869;28;20172;-88
2022/06/15 13:00:36;;;;;;;8.20;2.50;;;24.50;45.80;;;;;;4999536;28;20217;-88
2022/06/15 13:03:36;;;;;;;9.15;2.85;;;25.10;41.70;;;;;;5033613;28;20693;-88
2022/06/15 13:06:21;;;;;;;7.55;2.90;;;25.10;41.90;;;;;;5002129;28;20243;-88
2022/06/15 13:08:57;;;;;;;5.43;2.60;;;25.40;40.60;;;;;;5034721;28;20291;-89
2022/06/15 13:11:23;;;;;;;4.93;2.40;;;25.20;41.50;;;;;;5034016;28;20161;-88
2022/06/15 13:13:53;;;;;;;6.30;2.55;;;25.40;42.30;;;;;;5033734;28;20173;-88
2022/06/15 13:16:41;;;;;;;9.30;2.85;;;24.20;47.00;;;;;;5033387;28;20264;-87
2022/06/15 13:19:28;;;;;;;5.30;2.55;;;25.10;44.40;;;;;;5033019;28;20219;-87
2022/06/15 13:22:07;;;;;;;7.13;2.88;;;25.10;43.50;;;;;;4993583;28;20280;-89
2022/06/15 13:24:52;;;;;;;5.60;2.22;;;25.40;43.80;;;;;;5034573;28;20643;-88
2022/06/15 13:27:23;;;;;;;6.68;2.20;;;25.70;42.80;;;;;;5033194;28;20538;-88
2022/06/15 13:30:10;;;;;;;7.43;2.83;;;25.70;43.60;;;;;;5033134;28;20266;-89
2022/06/15 13:33:02;;;;;;;4.78;2.50;;;25.50;41.40;;;;;;5033146;28;20256;-89
2022/06/15 13:35:33;;;;;;;6.78;2.90;;;25.70;43.60;;;;;;5033049;28;20244;-88